createdAt,value
2022-10-18T00:02:15.779Z,14.02
2022-10-18T00:04:42.486Z,13.70
2022-10-18T00:07:09.141Z,11.85
2022-10-18T00:09:35.855Z,12.02
2022-10-18T00:12:02.697Z,12.10
2022-10-18T00:16:55.962Z,11.30
2022-10-18T00:19:25.924Z,11.95
2022-10-18T00:21:55.271Z,12.00
2022-10-18T00:24:21.913Z,11.82
2022-10-18T00:26:48.533Z,11.07
2022-10-18T00:29:16.457Z,11.73
2022-10-18T00:31:44.282Z,11.48
2022-10-18T00:34:15.816Z,10.20
2022-10-18T00:36:43.784Z,11.77
2022-10-18T00:39:17.734Z,12.93
2022-10-18T00:41:45.147Z,12.95
2022-10-18T00:44:11.723Z,12.63
2022-10-18T00:46:40.947Z,11.75
2022-10-18T00:49:13.303Z,11.13
2022-10-18T00:52:05.428Z,11.65
2022-10-18T00:54:35.583Z,11.30
2022-10-18T00:57:03.111Z,11.10
2022-10-18T00:59:30.353Z,11.18
2022-10-18T01:01:57.121Z,11.80
2022-10-18T01:04:24.129Z,10.82
2022-10-18T01:07:09.574Z,11.20
2022-10-18T01:09:39.048Z,11.40
2022-10-18T01:12:29.293Z,12.55
2022-10-18T01:15:17.814Z,11.77
2022-10-18T01:18:22.227Z,11.68
2022-10-18T01:21:15.208Z,11.90
2022-10-18T01:24:16.194Z,11.05
2022-10-18T01:27:09.185Z,10.32
2022-10-18T01:29:53.289Z,10.73
2022-10-18T01:32:24.080Z,10.80
2022-10-18T01:34:57.339Z,11.95
2022-10-18T01:39:55.851Z,11.85
2022-10-18T01:42:22.696Z,11.55
2022-10-18T01:44:52.106Z,12.77
2022-10-18T01:47:19.527Z,12.95
2022-10-18T01:49:46.328Z,12.63
2022-10-18T01:52:14.684Z,12.40
2022-10-18T01:54:46.106Z,12.50
2022-10-18T01:57:27.700Z,11.57
2022-10-18T02:00:16.517Z,11.40
2022-10-18T02:02:56.587Z,9.82
2022-10-18T02:05:33.196Z,11.55
2022-10-18T02:08:23.379Z,11.85
2022-10-18T02:11:03.681Z,10.45
2022-10-18T02:13:58.496Z,10.57
2022-10-18T02:16:45.615Z,10.52
2022-10-18T02:19:32.982Z,10.32
2022-10-18T02:22:00.495Z,10.35
2022-10-18T02:24:49.576Z,10.27
2022-10-18T02:27:16.678Z,10.70
2022-10-18T02:29:44.399Z,9.45
2022-10-18T02:32:11.032Z,9.80
2022-10-18T02:34:49.285Z,10.68
2022-10-18T02:37:17.317Z,9.80
2022-10-18T02:39:48.262Z,10.30
2022-10-18T02:42:15.928Z,10.10
2022-10-18T02:44:42.949Z,10.30
2022-10-18T02:47:11.444Z,10.52
2022-10-18T02:49:38.333Z,10.23
2022-10-18T02:54:32.059Z,9.32
2022-10-18T02:56:59.211Z,8.85
2022-10-18T02:59:25.894Z,9.27
2022-10-18T03:01:52.708Z,10.27
2022-10-18T03:04:19.542Z,9.18
2022-10-18T03:06:46.207Z,10.25
2022-10-18T03:09:13.276Z,9.60
2022-10-18T03:11:39.914Z,9.70
2022-10-18T03:14:06.561Z,9.45
2022-10-18T03:16:34.152Z,9.18
2022-10-18T03:19:00.823Z,9.05
2022-10-18T03:21:27.676Z,9.27
2022-10-18T03:23:54.714Z,9.70
2022-10-18T03:26:21.780Z,8.80
2022-10-18T03:28:48.449Z,9.65
2022-10-18T03:31:15.167Z,10.43
2022-10-18T03:33:42.251Z,12.02
2022-10-18T03:36:09.424Z,11.20
2022-10-18T03:38:36.139Z,11.45
2022-10-18T03:41:03.237Z,10.93
2022-10-18T03:43:30.042Z,9.70
2022-10-18T03:45:56.768Z,10.45
2022-10-18T03:48:23.511Z,10.40
2022-10-18T03:50:50.216Z,9.52
2022-10-18T03:53:17.279Z,9.90
2022-10-18T03:55:43.973Z,10.07
2022-10-18T03:58:11.539Z,10.43
2022-10-18T04:00:38.219Z,9.60
2022-10-18T04:03:04.974Z,10.38
2022-10-18T04:05:31.621Z,10.48
2022-10-18T04:07:58.571Z,9.90
2022-10-18T04:12:52.142Z,9.25
2022-10-18T04:15:18.892Z,10.10
2022-10-18T04:17:45.642Z,10.68
2022-10-18T04:20:12.551Z,9.70
2022-10-18T04:25:06.134Z,9.38
2022-10-18T04:27:33.102Z,9.43
2022-10-18T04:29:59.908Z,9.35
2022-10-18T04:32:28.635Z,9.05
2022-10-18T04:34:55.682Z,8.40
2022-10-18T04:37:22.763Z,8.70
2022-10-18T04:39:53.436Z,13.45
2022-10-18T04:42:21.157Z,13.95
2022-10-18T04:44:48.370Z,10.63
2022-10-18T04:47:15.224Z,9.65
2022-10-18T04:49:42.562Z,10.45
2022-10-18T04:52:09.842Z,9.23
2022-10-18T04:54:36.705Z,10.02
2022-10-18T04:57:03.727Z,9.73
2022-10-18T04:59:30.823Z,9.52
2022-10-18T05:01:57.694Z,11.00
2022-10-18T05:06:51.006Z,11.32
2022-10-18T05:09:17.837Z,11.82
2022-10-18T05:11:44.917Z,10.20
2022-10-18T05:14:11.626Z,12.40
2022-10-18T05:16:38.305Z,11.77
2022-10-18T05:19:05.679Z,12.00
2022-10-18T05:21:32.771Z,11.30
2022-10-18T05:23:59.518Z,11.38
2022-10-18T05:26:26.404Z,11.93
2022-10-18T05:31:21.214Z,11.05
2022-10-18T05:33:48.289Z,11.25
2022-10-18T05:36:15.312Z,11.30
2022-10-18T05:38:43.122Z,10.48
2022-10-18T05:41:10.171Z,9.50
2022-10-18T05:43:36.963Z,10.15
2022-10-18T05:46:04.786Z,8.98
2022-10-18T05:48:31.558Z,9.50
2022-10-18T05:50:59.484Z,9.32
2022-10-18T05:53:42.175Z,9.23
2022-10-18T05:56:11.600Z,8.60
2022-10-18T05:58:38.719Z,8.32
2022-10-18T06:01:06.328Z,8.80
2022-10-18T06:03:33.573Z,9.15
2022-10-18T06:06:06.103Z,9.38
2022-10-18T06:08:33.476Z,8.52
2022-10-18T06:11:00.670Z,7.95
2022-10-18T06:13:29.084Z,8.10
2022-10-18T06:15:58.319Z,6.97
2022-10-18T06:18:25.638Z,7.75
2022-10-18T06:20:59.445Z,8.95
2022-10-18T06:23:29.208Z,7.40
2022-10-18T06:26:04.620Z,7.32
2022-10-18T06:28:31.472Z,7.32
2022-10-18T06:33:25.388Z,9.20
2022-10-18T06:36:03.464Z,6.57
2022-10-18T06:38:30.717Z,6.07
2022-10-18T06:40:58.203Z,5.82
2022-10-18T06:43:25.033Z,7.15
2022-10-18T06:45:52.159Z,6.60
2022-10-18T06:51:00.250Z,5.65
2022-10-18T06:53:29.274Z,5.90
2022-10-18T06:56:07.317Z,5.32
2022-10-18T06:58:35.271Z,4.93
2022-10-18T07:01:11.167Z,6.38
2022-10-18T07:03:38.072Z,5.47
2022-10-18T07:06:07.181Z,5.90
2022-10-18T07:08:34.472Z,5.93
2022-10-18T07:11:01.659Z,5.97
2022-10-18T07:13:33.061Z,5.35
2022-10-18T07:16:20.454Z,5.97
2022-10-18T07:18:49.600Z,5.82
2022-10-18T07:21:18.640Z,5.32
2022-10-18T07:23:46.317Z,5.72
2022-10-18T07:26:16.713Z,5.75
2022-10-18T07:28:45.179Z,5.68
2022-10-18T07:31:12.784Z,5.00
2022-10-18T07:33:39.700Z,4.55
2022-10-18T07:36:08.690Z,4.88
2022-10-18T07:38:35.829Z,5.35
2022-10-18T07:41:06.158Z,5.55
2022-10-18T07:43:33.607Z,5.40
2022-10-18T07:46:02.311Z,5.68
2022-10-18T07:48:29.650Z,5.97
2022-10-18T07:50:59.662Z,6.15
2022-10-18T07:53:26.652Z,5.97
2022-10-18T07:58:23.576Z,6.15
2022-10-18T08:00:50.206Z,5.95
2022-10-18T08:03:16.889Z,5.97
2022-10-18T08:05:43.552Z,6.13
2022-10-18T08:08:10.323Z,6.03
2022-10-18T08:10:37.051Z,5.65
2022-10-18T08:13:03.704Z,5.90
2022-10-18T08:15:30.325Z,6.32
2022-10-18T08:17:57.387Z,6.07
2022-10-18T08:20:30.785Z,6.15
2022-10-18T08:23:00.485Z,6.97
2022-10-18T08:25:28.306Z,6.38
2022-10-18T08:27:55.163Z,6.10
2022-10-18T08:30:23.299Z,5.85
2022-10-18T08:32:49.932Z,6.63
2022-10-18T08:35:16.631Z,6.63
2022-10-18T08:37:45.181Z,5.80
2022-10-18T08:40:15.245Z,6.25
2022-10-18T08:42:57.983Z,5.28
2022-10-18T08:45:40.945Z,5.65
2022-10-18T08:48:11.994Z,5.75
2022-10-18T08:50:39.568Z,5.13
2022-10-18T08:53:36.187Z,4.70
2022-10-18T08:56:16.000Z,3.65
2022-10-18T08:58:46.481Z,3.47
2022-10-18T09:01:19.141Z,3.10
2022-10-18T09:04:03.405Z,2.53
2022-10-18T09:06:38.509Z,2.47
2022-10-18T09:09:05.638Z,2.50
2022-10-18T09:11:46.822Z,2.78
2022-10-18T09:14:56.008Z,2.95
2022-10-18T09:17:50.109Z,2.15
2022-10-18T09:20:22.105Z,2.17
2022-10-18T09:22:52.525Z,1.50
2022-10-18T09:25:21.109Z,1.38
2022-10-18T09:28:21.738Z,1.73
2022-10-18T09:31:05.697Z,2.03
2022-10-18T09:33:53.627Z,1.73
2022-10-18T09:36:26.735Z,1.45
2022-10-18T09:38:59.914Z,1.77
2022-10-18T09:41:53.988Z,1.60
2022-10-18T09:44:35.379Z,1.55
2022-10-18T09:47:22.739Z,2.03
2022-10-18T09:49:51.662Z,1.58
2022-10-18T09:52:27.237Z,1.70
2022-10-18T09:55:01.115Z,1.17
2022-10-18T09:57:42.681Z,1.30
2022-10-18T10:00:18.503Z,1.48
2022-10-18T10:02:45.171Z,1.77
2022-10-18T10:05:15.357Z,1.02
2022-10-18T10:07:44.943Z,1.23
2022-10-18T10:10:21.707Z,0.80
2022-10-18T10:12:49.140Z,0.98
2022-10-18T10:15:31.204Z,1.70
2022-10-18T10:18:03.466Z,1.67
2022-10-18T10:20:36.999Z,1.35
2022-10-18T10:23:13.797Z,0.90
2022-10-18T10:25:42.138Z,1.23
2022-10-18T10:28:22.534Z,0.90
2022-10-18T10:30:49.939Z,1.08
2022-10-18T10:33:38.063Z,1.73
2022-10-18T10:36:16.027Z,0.77
2022-10-18T10:38:43.074Z,1.08
2022-10-18T10:41:21.580Z,0.90
2022-10-18T10:43:49.787Z,1.38
2022-10-18T10:46:20.824Z,0.93
2022-10-18T10:49:04.455Z,1.52
2022-10-18T10:51:41.101Z,1.20
2022-10-18T10:54:24.361Z,1.58
2022-10-18T10:57:12.629Z,1.25
2022-10-18T10:59:44.765Z,1.13
2022-10-18T11:02:15.189Z,0.88
2022-10-18T11:04:42.416Z,1.00
2022-10-18T11:07:08.986Z,0.90
2022-10-18T11:09:41.431Z,0.80
2022-10-18T11:12:22.972Z,1.17
2022-10-18T11:15:12.745Z,0.90
2022-10-18T11:17:39.332Z,0.88
2022-10-18T11:20:22.975Z,0.85
2022-10-18T11:23:11.812Z,1.20
2022-10-18T11:25:49.027Z,0.90
2022-10-18T11:28:45.998Z,0.90
2022-10-18T11:31:23.851Z,1.13
2022-10-18T11:34:09.930Z,1.05
2022-10-18T11:37:36.019Z,1.10
2022-10-18T11:40:23.509Z,0.80
2022-10-18T11:43:17.484Z,0.95
2022-10-18T11:46:21.075Z,1.10
2022-10-18T11:49:02.369Z,1.02
2022-10-18T11:52:07.692Z,1.92
2022-10-18T11:55:04.085Z,0.90
2022-10-18T11:57:43.739Z,0.98
2022-10-18T12:03:27.592Z,1.38
2022-10-18T12:05:57.066Z,1.20
2022-10-18T12:08:27.087Z,0.77
2022-10-18T12:11:05.058Z,0.80
2022-10-18T12:13:57.597Z,0.95
2022-10-18T12:16:49.259Z,0.90
2022-10-18T12:19:29.048Z,0.73
2022-10-18T12:22:02.441Z,0.70
2022-10-18T12:24:31.625Z,1.08
2022-10-18T12:27:01.237Z,1.23
2022-10-18T12:29:28.322Z,0.85
2022-10-18T12:32:01.693Z,0.85
2022-10-18T12:34:54.191Z,0.70
2022-10-18T12:37:45.859Z,0.60
2022-10-18T12:40:23.211Z,0.60
2022-10-18T12:42:52.175Z,0.70
2022-10-18T12:45:26.101Z,1.45
2022-10-18T12:47:53.924Z,0.80
2022-10-18T12:50:35.083Z,0.90
2022-10-18T12:53:12.309Z,1.00
2022-10-18T12:55:47.634Z,0.90
2022-10-18T12:58:14.219Z,1.00
2022-10-18T13:00:43.952Z,1.17
2022-10-18T13:03:13.275Z,1.20
2022-10-18T13:05:54.553Z,1.00
2022-10-18T13:08:28.171Z,1.05
2022-10-18T13:11:27.348Z,1.30
2022-10-18T13:14:15.881Z,1.08
2022-10-18T13:17:06.104Z,1.15
2022-10-18T13:20:25.125Z,1.27
2022-10-18T13:23:03.840Z,1.10
2022-10-18T13:25:51.260Z,1.30
2022-10-18T13:28:44.845Z,0.95
2022-10-18T13:31:52.863Z,1.00
2022-10-18T13:34:24.977Z,1.25
2022-10-18T13:39:28.477Z,1.10
2022-10-18T13:41:58.139Z,1.35
2022-10-18T13:44:28.436Z,0.88
2022-10-18T13:46:55.103Z,1.20
2022-10-18T13:49:36.437Z,1.08
2022-10-18T13:52:09.054Z,1.10
2022-10-18T13:55:04.284Z,1.00
2022-10-18T13:58:03.578Z,0.80
2022-10-18T14:00:49.209Z,0.80
2022-10-18T14:06:40.735Z,0.77
2022-10-18T14:09:43.793Z,1.13
2022-10-18T14:12:33.744Z,0.90
2022-10-18T14:15:07.805Z,1.10
2022-10-18T14:17:42.872Z,1.38
2022-10-18T14:20:49.339Z,1.50
2022-10-18T14:23:33.743Z,1.17
2022-10-18T14:26:22.764Z,1.65
2022-10-18T14:29:19.044Z,1.00
2022-10-18T14:31:54.274Z,1.10
2022-10-18T14:34:21.686Z,1.35
2022-10-18T14:36:50.165Z,1.20
2022-10-18T14:39:21.918Z,1.15
2022-10-18T14:41:56.394Z,1.30
2022-10-18T14:44:28.864Z,1.58
2022-10-18T14:46:55.478Z,1.70
2022-10-18T14:49:22.191Z,1.55
2022-10-18T14:51:54.678Z,1.20
2022-10-18T14:54:35.999Z,1.35
2022-10-18T14:57:04.660Z,1.38
2022-10-18T14:59:44.806Z,1.25
2022-10-18T15:02:23.585Z,1.45
2022-10-18T15:05:08.652Z,1.20
2022-10-18T15:07:36.280Z,1.20
2022-10-18T15:10:04.836Z,1.30
2022-10-18T15:12:36.835Z,1.25
2022-10-18T15:15:17.939Z,1.02
2022-10-18T15:17:45.862Z,1.20
2022-10-18T15:20:25.991Z,1.05
2022-10-18T15:22:53.152Z,1.20
2022-10-18T15:25:31.592Z,1.23
2022-10-18T15:30:37.166Z,1.17
2022-10-18T15:33:09.592Z,1.40
2022-10-18T15:35:38.442Z,1.05
2022-10-18T15:38:17.076Z,1.10
2022-10-18T15:40:44.162Z,1.60
2022-10-18T15:43:23.017Z,1.42
2022-10-18T15:46:00.062Z,1.90
2022-10-18T15:48:40.784Z,2.30
2022-10-18T15:51:12.459Z,1.20
2022-10-18T15:53:44.980Z,1.30
2022-10-18T15:56:34.286Z,1.38
2022-10-18T15:59:15.710Z,1.58
2022-10-18T16:01:44.251Z,1.58
2022-10-18T16:04:25.016Z,1.27
2022-10-18T16:06:52.554Z,1.50
2022-10-18T16:09:21.009Z,1.65
2022-10-18T16:11:54.284Z,1.83
2022-10-18T16:14:24.396Z,1.73
2022-10-18T16:16:55.207Z,2.13
2022-10-18T16:19:25.210Z,1.67
2022-10-18T16:21:53.567Z,2.03
2022-10-18T16:24:21.371Z,1.42
2022-10-18T16:26:48.524Z,2.13
2022-10-18T16:29:25.804Z,1.75
2022-10-18T16:31:55.182Z,2.00
2022-10-18T16:34:22.730Z,2.17
2022-10-18T16:36:49.465Z,2.08
2022-10-18T16:39:18.110Z,2.65
2022-10-18T16:41:45.431Z,2.75
2022-10-18T16:44:12.888Z,3.28
2022-10-18T16:46:40.967Z,2.72
2022-10-18T16:49:16.997Z,2.33
2022-10-18T16:51:43.700Z,2.35
2022-10-18T16:56:37.167Z,2.63
2022-10-18T16:59:04.014Z,3.55
2022-10-18T17:03:57.396Z,3.08
2022-10-18T17:06:32.378Z,3.17
2022-10-18T17:08:59.673Z,3.67
2022-10-18T17:11:29.839Z,3.53
2022-10-18T17:13:56.935Z,3.42
2022-10-18T17:18:57.965Z,3.60
2022-10-18T17:21:26.364Z,3.20
2022-10-18T17:23:53.513Z,3.30
2022-10-18T17:26:30.449Z,3.90
2022-10-18T17:29:06.533Z,3.08
2022-10-18T17:31:33.593Z,3.10
2022-10-18T17:34:01.773Z,3.88
2022-10-18T17:36:30.512Z,3.50
2022-10-18T17:38:57.869Z,2.83
2022-10-18T17:41:24.640Z,3.40
2022-10-18T17:46:19.453Z,4.90
2022-10-18T17:48:46.664Z,4.05
2022-10-18T17:51:16.537Z,3.60
2022-10-18T17:53:44.067Z,3.78
2022-10-18T17:56:11.147Z,4.32
2022-10-18T17:58:37.894Z,4.40
2022-10-18T18:01:24.849Z,4.53
2022-10-18T18:03:57.154Z,4.20
2022-10-18T18:06:31.214Z,4.50
2022-10-18T18:08:59.393Z,4.32
2022-10-18T18:11:26.340Z,3.55
2022-10-18T18:13:55.558Z,4.25
2022-10-18T18:16:25.431Z,3.65
2022-10-18T18:18:55.541Z,5.20
2022-10-18T18:21:22.971Z,5.30
2022-10-18T18:23:50.152Z,4.93
2022-10-18T18:26:18.480Z,3.50
2022-10-18T18:28:45.363Z,3.42
2022-10-18T18:31:15.491Z,2.53
2022-10-18T18:33:42.903Z,2.65
2022-10-18T18:36:10.214Z,2.65
2022-10-18T18:38:38.732Z,2.53
2022-10-18T18:41:07.575Z,2.53
2022-10-18T18:43:35.107Z,2.53
2022-10-18T18:46:02.200Z,2.97
2022-10-18T18:48:29.048Z,3.10
2022-10-18T18:53:24.893Z,3.03
2022-10-18T18:55:53.802Z,2.90
2022-10-18T18:58:20.871Z,2.30
2022-10-18T19:00:47.648Z,2.65
2022-10-18T19:03:14.334Z,2.90
2022-10-18T19:05:41.014Z,2.50
2022-10-18T19:08:07.750Z,2.88
2022-10-18T19:10:34.863Z,2.72
2022-10-18T19:13:01.948Z,2.58
2022-10-18T19:15:28.665Z,3.08
2022-10-18T19:17:56.296Z,2.53
2022-10-18T19:20:23.032Z,2.35
2022-10-18T19:22:49.713Z,2.70
2022-10-18T19:25:16.455Z,2.50
2022-10-18T19:27:43.580Z,2.47
2022-10-18T19:30:11.517Z,3.03
2022-10-18T19:32:38.424Z,2.15
2022-10-18T19:37:32.625Z,2.45
2022-10-18T19:39:59.699Z,2.38
2022-10-18T19:42:30.329Z,2.13
2022-10-18T19:44:58.419Z,2.72
2022-10-18T19:47:25.487Z,2.15
2022-10-18T19:49:53.670Z,2.05
2022-10-18T19:52:20.808Z,2.20
2022-10-18T19:54:48.921Z,2.40
2022-10-18T19:57:15.894Z,2.67
2022-10-18T20:02:14.636Z,2.92
2022-10-18T20:04:42.011Z,4.22
2022-10-18T20:07:09.009Z,4.07
2022-10-18T20:09:36.337Z,3.35
2022-10-18T20:12:03.096Z,2.25
2022-10-18T20:14:30.247Z,2.20
2022-10-18T20:16:57.296Z,2.75
2022-10-18T20:19:24.444Z,2.85
2022-10-18T20:21:51.653Z,3.05
2022-10-18T20:24:18.271Z,2.70
2022-10-18T20:26:45.104Z,2.30
2022-10-18T20:29:12.845Z,2.28
2022-10-18T20:31:39.646Z,2.40
2022-10-18T20:34:10.384Z,2.00
2022-10-18T20:36:37.627Z,3.10
2022-10-18T20:39:05.176Z,3.75
2022-10-18T20:41:37.931Z,2.92
2022-10-18T20:44:07.108Z,2.72
2022-10-18T20:46:35.765Z,2.65
2022-10-18T20:49:03.047Z,2.90
2022-10-18T20:51:30.263Z,2.60
2022-10-18T20:53:57.143Z,2.40
2022-10-18T20:56:26.558Z,3.28
2022-10-18T20:58:56.842Z,3.17
2022-10-18T21:01:32.224Z,3.08
2022-10-18T21:04:03.126Z,3.38
2022-10-18T21:06:41.595Z,3.83
2022-10-18T21:09:16.689Z,4.20
2022-10-18T21:11:45.911Z,4.35
2022-10-18T21:14:20.427Z,3.92
2022-10-18T21:16:47.989Z,4.43
2022-10-18T21:19:15.152Z,4.05
2022-10-18T21:21:44.341Z,3.92
2022-10-18T21:24:12.101Z,4.68
2022-10-18T21:26:39.154Z,3.17
2022-10-18T21:29:06.709Z,3.60
2022-10-18T21:31:39.148Z,3.85
2022-10-18T21:34:15.707Z,4.18
2022-10-18T21:36:43.925Z,7.13
2022-10-18T21:39:13.563Z,5.38
2022-10-18T21:41:40.445Z,3.65
2022-10-18T21:44:10.690Z,3.40
2022-10-18T21:46:39.271Z,3.90
2022-10-18T21:49:06.976Z,5.47
2022-10-18T21:51:33.784Z,4.60
2022-10-18T21:54:00.572Z,4.53
2022-10-18T21:56:30.046Z,4.50
2022-10-18T21:58:57.475Z,4.65
2022-10-18T22:01:38.122Z,3.75
2022-10-18T22:04:16.159Z,4.15
2022-10-18T22:06:42.788Z,4.53
2022-10-18T22:09:09.506Z,5.38
2022-10-18T22:11:42.854Z,3.20
2022-10-18T22:14:09.560Z,2.97
2022-10-18T22:16:36.618Z,3.70
2022-10-18T22:21:31.285Z,3.65
2022-10-18T22:26:34.070Z,3.85
2022-10-18T22:29:06.935Z,3.63
2022-10-18T22:31:36.752Z,3.38
2022-10-18T22:34:06.710Z,3.25
2022-10-18T22:36:34.816Z,4.15
2022-10-18T22:39:01.927Z,3.78
2022-10-18T22:41:28.720Z,3.78
2022-10-18T22:43:58.392Z,3.22
2022-10-18T22:46:28.312Z,3.78
2022-10-18T22:48:55.091Z,3.17
2022-10-18T22:51:22.219Z,3.80
2022-10-18T22:53:49.386Z,3.70
2022-10-18T22:58:44.826Z,3.40
2022-10-18T23:03:42.596Z,3.25
2022-10-18T23:06:24.736Z,3.58
2022-10-18T23:08:52.042Z,3.72
2022-10-18T23:11:19.305Z,3.80
2022-10-18T23:13:46.393Z,4.05
2022-10-18T23:21:09.453Z,3.67
2022-10-18T23:23:38.529Z,4.43
2022-10-18T23:26:07.583Z,3.83
2022-10-18T23:28:36.881Z,4.00
2022-10-18T23:31:10.342Z,4.10
2022-10-18T23:36:05.247Z,4.32
2022-10-18T23:38:32.487Z,4.28
2022-10-18T23:40:59.575Z,4.25
2022-10-18T23:45:53.499Z,4.07
2022-10-18T23:48:20.183Z,4.65
2022-10-18T23:50:47.204Z,4.00
2022-10-18T23:53:13.873Z,4.35
2022-10-18T23:55:48.469Z,4.45
2022-10-18T23:58:15.521Z,4.13
